sensor_id;sensor_type;location;lat;lon;timestamp;P1;durP1;ratioP1;P2;durP2;ratioP2
29422;SDS011;16399;51.686;8.684;2022-11-27T00:00:19;10.28;;;4.92;;
29422;SDS011;16399;51.686;8.684;2022-11-27T00:03:21;10.82;;;4.37;;
29422;SDS011;16399;51.686;8.684;2022-11-27T00:06:25;14.20;;;4.42;;
29422;SDS011;16399;51.686;8.684;2022-11-27T00:09:28;12.55;;;4.83;;
29422;SDS011;16399;51.686;8.684;2022-11-27T00:12:33;10.53;;;4.92;;
29422;SDS011;16399;51.686;8.684;2022-11-27T00:15:36;13.05;;;5.10;;
29422;SDS011;16399;51.686;8.684;2022-11-27T00:18:38;13.22;;;5.12;;
29422;SDS011;16399;51.686;8.684;2022-11-27T00:21:40;15.43;;;4.85;;
29422;SDS011;16399;51.686;8.684;2022-11-27T00:24:43;13.15;;;5.50;;
29422;SDS011;16399;51.686;8.684;2022-11-27T00:27:45;14.60;;;5.40;;
29422;SDS011;16399;51.686;8.684;2022-11-27T00:30:47;14.55;;;6.15;;
29422;SDS011;16399;51.686;8.684;2022-11-27T00:33:53;10.72;;;5.25;;
29422;SDS011;16399;51.686;8.684;2022-11-27T00:36:57;13.08;;;6.22;;
29422;SDS011;16399;51.686;8.684;2022-11-27T00:39:59;14.40;;;6.05;;
29422;SDS011;16399;51.686;8.684;2022-11-27T00:43:02;12.80;;;6.15;;
29422;SDS011;16399;51.686;8.684;2022-11-27T00:46:04;13.25;;;6.78;;
29422;SDS011;16399;51.686;8.684;2022-11-27T00:49:07;12.68;;;6.58;;
29422;SDS011;16399;51.686;8.684;2022-11-27T00:52:11;15.68;;;7.65;;
29422;SDS011;16399;51.686;8.684;2022-11-27T00:55:13;14.95;;;7.67;;
29422;SDS011;16399;51.686;8.684;2022-11-27T00:58:16;13.10;;;7.87;;
29422;SDS011;16399;51.686;8.684;2022-11-27T01:01:19;16.20;;;8.15;;
29422;SDS011;16399;51.686;8.684;2022-11-27T01:04:26;16.57;;;8.70;;
29422;SDS011;16399;51.686;8.684;2022-11-27T01:07:29;16.60;;;8.60;;
29422;SDS011;16399;51.686;8.684;2022-11-27T01:10:32;14.15;;;8.58;;
29422;SDS011;16399;51.686;8.684;2022-11-27T01:13:35;15.40;;;8.50;;
29422;SDS011;16399;51.686;8.684;2022-11-27T01:16:38;15.07;;;8.63;;
29422;SDS011;16399;51.686;8.684;2022-11-27T01:19:40;14.35;;;8.53;;
29422;SDS011;16399;51.686;8.684;2022-11-27T01:22:42;16.80;;;8.93;;
29422;SDS011;16399;51.686;8.684;2022-11-27T01:25:45;17.90;;;9.20;;
29422;SDS011;16399;51.686;8.684;2022-11-27T01:28:50;16.30;;;8.55;;
29422;SDS011;16399;51.686;8.684;2022-11-27T01:31:52;14.23;;;7.45;;
29422;SDS011;16399;51.686;8.684;2022-11-27T01:34:54;18.20;;;8.00;;
29422;SDS011;16399;51.686;8.684;2022-11-27T01:37:56;20.43;;;8.95;;
29422;SDS011;16399;51.686;8.684;2022-11-27T01:41:00;14.83;;;8.13;;
29422;SDS011;16399;51.686;8.684;2022-11-27T01:47:39;14.98;;;7.45;;
29422;SDS011;16399;51.686;8.684;2022-11-27T01:50:45;15.65;;;8.30;;
29422;SDS011;16399;51.686;8.684;2022-11-27T01:53:47;15.43;;;8.28;;
29422;SDS011;16399;51.686;8.684;2022-11-27T01:59:56;15.15;;;7.78;;
29422;SDS011;16399;51.686;8.684;2022-11-27T02:03:00;15.68;;;7.42;;
29422;SDS011;16399;51.686;8.684;2022-11-27T02:06:03;16.42;;;7.92;;
29422;SDS011;16399;51.686;8.684;2022-11-27T02:09:05;12.93;;;7.45;;
29422;SDS011;16399;51.686;8.684;2022-11-27T02:12:11;15.63;;;8.38;;
29422;SDS011;16399;51.686;8.684;2022-11-27T02:15:15;12.98;;;7.40;;
29422;SDS011;16399;51.686;8.684;2022-11-27T02:18:26;17.85;;;7.78;;
29422;SDS011;16399;51.686;8.684;2022-11-27T02:28:18;17.95;;;8.15;;
29422;SDS011;16399;51.686;8.684;2022-11-27T02:31:31;17.05;;;8.43;;
29422;SDS011;16399;51.686;8.684;2022-11-27T02:34:48;19.05;;;7.95;;
29422;SDS011;16399;51.686;8.684;2022-11-27T02:37:54;15.98;;;8.08;;
29422;SDS011;16399;51.686;8.684;2022-11-27T02:41:14;17.45;;;8.35;;
29422;SDS011;16399;51.686;8.684;2022-11-27T02:44:18;15.90;;;8.10;;
29422;SDS011;16399;51.686;8.684;2022-11-27T02:47:22;15.10;;;8.00;;
29422;SDS011;16399;51.686;8.684;2022-11-27T02:50:26;20.23;;;8.55;;
29422;SDS011;16399;51.686;8.684;2022-11-27T02:53:32;15.00;;;8.48;;
29422;SDS011;16399;51.686;8.684;2022-11-27T02:56:37;18.77;;;8.45;;
29422;SDS011;16399;51.686;8.684;2022-11-27T02:59:41;22.62;;;9.05;;
29422;SDS011;16399;51.686;8.684;2022-11-27T03:02:49;17.47;;;8.37;;
29422;SDS011;16399;51.686;8.684;2022-11-27T03:05:53;21.75;;;10.00;;
29422;SDS011;16399;51.686;8.684;2022-11-27T03:09:08;22.93;;;9.98;;
29422;SDS011;16399;51.686;8.684;2022-11-27T03:12:15;18.80;;;9.65;;
29422;SDS011;16399;51.686;8.684;2022-11-27T03:15:19;19.98;;;9.45;;
29422;SDS011;16399;51.686;8.684;2022-11-27T03:18:26;21.35;;;8.40;;
29422;SDS011;16399;51.686;8.684;2022-11-27T03:21:41;16.73;;;8.93;;
29422;SDS011;16399;51.686;8.684;2022-11-27T03:24:45;16.93;;;8.98;;
29422;SDS011;16399;51.686;8.684;2022-11-27T03:27:53;19.23;;;8.93;;
29422;SDS011;16399;51.686;8.684;2022-11-27T03:31:00;24.35;;;10.28;;
29422;SDS011;16399;51.686;8.684;2022-11-27T03:34:03;22.48;;;9.73;;
29422;SDS011;16399;51.686;8.684;2022-11-27T03:37:06;22.37;;;9.05;;
29422;SDS011;16399;51.686;8.684;2022-11-27T03:40:08;17.45;;;9.93;;
29422;SDS011;16399;51.686;8.684;2022-11-27T03:43:17;22.62;;;10.35;;
29422;SDS011;16399;51.686;8.684;2022-11-27T03:46:32;22.00;;;10.63;;
29422;SDS011;16399;51.686;8.684;2022-11-27T03:49:43;19.75;;;10.13;;
29422;SDS011;16399;51.686;8.684;2022-11-27T03:53:07;20.20;;;9.15;;
29422;SDS011;16399;51.686;8.684;2022-11-27T03:55:59;17.42;;;9.50;;
29422;SDS011;16399;51.686;8.684;2022-11-27T03:59:04;21.25;;;9.15;;
29422;SDS011;16399;51.686;8.684;2022-11-27T04:02:12;23.20;;;10.25;;
29422;SDS011;16399;51.686;8.684;2022-11-27T04:05:15;21.12;;;10.78;;
29422;SDS011;16399;51.686;8.684;2022-11-27T04:08:18;22.98;;;10.80;;
29422;SDS011;16399;51.686;8.684;2022-11-27T04:11:21;19.90;;;10.18;;
29422;SDS011;16399;51.686;8.684;2022-11-27T04:14:23;25.72;;;11.03;;
29422;SDS011;16399;51.686;8.684;2022-11-27T04:17:25;19.37;;;10.25;;
29422;SDS011;16399;51.686;8.684;2022-11-27T04:20:28;20.48;;;11.40;;
29422;SDS011;16399;51.686;8.684;2022-11-27T04:23:30;20.15;;;10.20;;
29422;SDS011;16399;51.686;8.684;2022-11-27T04:26:33;23.75;;;11.08;;
29422;SDS011;16399;51.686;8.684;2022-11-27T04:29:35;22.27;;;9.83;;
29422;SDS011;16399;51.686;8.684;2022-11-27T04:32:37;22.25;;;10.28;;
29422;SDS011;16399;51.686;8.684;2022-11-27T04:35:40;22.95;;;10.65;;
29422;SDS011;16399;51.686;8.684;2022-11-27T04:38:42;26.75;;;11.15;;
29422;SDS011;16399;51.686;8.684;2022-11-27T04:41:44;22.58;;;11.88;;
29422;SDS011;16399;51.686;8.684;2022-11-27T04:44:47;23.22;;;10.72;;
29422;SDS011;16399;51.686;8.684;2022-11-27T04:47:49;20.37;;;11.20;;
29422;SDS011;16399;51.686;8.684;2022-11-27T04:50:53;23.80;;;10.85;;
29422;SDS011;16399;51.686;8.684;2022-11-27T04:53:56;23.73;;;10.98;;
29422;SDS011;16399;51.686;8.684;2022-11-27T04:56:58;22.02;;;11.00;;
29422;SDS011;16399;51.686;8.684;2022-11-27T05:00:00;22.77;;;9.55;;
29422;SDS011;16399;51.686;8.684;2022-11-27T05:03:04;21.25;;;11.03;;
29422;SDS011;16399;51.686;8.684;2022-11-27T05:06:07;22.52;;;10.18;;
29422;SDS011;16399;51.686;8.684;2022-11-27T05:09:09;21.02;;;9.90;;
29422;SDS011;16399;51.686;8.684;2022-11-27T05:12:11;19.10;;;10.10;;
29422;SDS011;16399;51.686;8.684;2022-11-27T05:15:14;21.30;;;9.93;;
29422;SDS011;16399;51.686;8.684;2022-11-27T05:18:16;19.15;;;9.78;;
29422;SDS011;16399;51.686;8.684;2022-11-27T05:21:18;21.60;;;9.35;;
29422;SDS011;16399;51.686;8.684;2022-11-27T05:24:21;17.45;;;8.68;;
29422;SDS011;16399;51.686;8.684;2022-11-27T05:27:25;18.73;;;9.03;;
29422;SDS011;16399;51.686;8.684;2022-11-27T05:30:27;20.92;;;9.83;;
29422;SDS011;16399;51.686;8.684;2022-11-27T05:33:29;15.65;;;8.85;;
29422;SDS011;16399;51.686;8.684;2022-11-27T05:36:32;16.95;;;8.18;;
29422;SDS011;16399;51.686;8.684;2022-11-27T05:39:35;13.83;;;7.25;;
29422;SDS011;16399;51.686;8.684;2022-11-27T05:42:37;17.45;;;7.78;;
29422;SDS011;16399;51.686;8.684;2022-11-27T05:45:40;13.80;;;7.30;;
29422;SDS011;16399;51.686;8.684;2022-11-27T05:48:42;17.42;;;7.92;;
29422;SDS011;16399;51.686;8.684;2022-11-27T05:51:44;14.28;;;7.42;;
29422;SDS011;16399;51.686;8.684;2022-11-27T05:54:47;18.00;;;7.55;;
29422;SDS011;16399;51.686;8.684;2022-11-27T05:57:49;15.58;;;7.58;;
29422;SDS011;16399;51.686;8.684;2022-11-27T06:00:51;18.62;;;8.20;;
29422;SDS011;16399;51.686;8.684;2022-11-27T06:03:53;15.78;;;6.62;;
29422;SDS011;16399;51.686;8.684;2022-11-27T06:06:56;13.68;;;7.00;;
29422;SDS011;16399;51.686;8.684;2022-11-27T06:09:58;21.27;;;7.37;;
29422;SDS011;16399;51.686;8.684;2022-11-27T06:13:00;16.23;;;7.55;;
29422;SDS011;16399;51.686;8.684;2022-11-27T06:16:17;16.55;;;7.47;;
29422;SDS011;16399;51.686;8.684;2022-11-27T06:19:17;13.07;;;6.83;;
29422;SDS011;16399;51.686;8.684;2022-11-27T06:22:19;11.95;;;6.58;;
29422;SDS011;16399;51.686;8.684;2022-11-27T06:25:22;14.45;;;6.40;;
29422;SDS011;16399;51.686;8.684;2022-11-27T06:28:24;15.72;;;7.00;;
29422;SDS011;16399;51.686;8.684;2022-11-27T06:31:27;17.85;;;7.37;;
29422;SDS011;16399;51.686;8.684;2022-11-27T06:34:31;15.63;;;6.92;;
29422;SDS011;16399;51.686;8.684;2022-11-27T06:37:33;16.23;;;7.80;;
29422;SDS011;16399;51.686;8.684;2022-11-27T06:40:36;12.88;;;6.45;;
29422;SDS011;16399;51.686;8.684;2022-11-27T06:43:38;18.17;;;7.72;;
29422;SDS011;16399;51.686;8.684;2022-11-27T06:46:40;14.47;;;6.42;;
29422;SDS011;16399;51.686;8.684;2022-11-27T06:49:43;13.72;;;7.28;;
29422;SDS011;16399;51.686;8.684;2022-11-27T06:52:45;11.28;;;6.25;;
29422;SDS011;16399;51.686;8.684;2022-11-27T06:55:47;11.78;;;6.30;;
29422;SDS011;16399;51.686;8.684;2022-11-27T06:58:50;15.03;;;7.20;;
29422;SDS011;16399;51.686;8.684;2022-11-27T07:01:54;11.18;;;6.28;;
29422;SDS011;16399;51.686;8.684;2022-11-27T07:04:56;14.05;;;7.05;;
29422;SDS011;16399;51.686;8.684;2022-11-27T07:07:59;13.80;;;6.85;;
29422;SDS011;16399;51.686;8.684;2022-11-27T07:11:05;12.33;;;6.87;;
29422;SDS011;16399;51.686;8.684;2022-11-27T07:14:09;12.80;;;6.80;;
29422;SDS011;16399;51.686;8.684;2022-11-27T07:17:11;14.87;;;6.90;;
29422;SDS011;16399;51.686;8.684;2022-11-27T07:20:13;15.72;;;7.00;;
29422;SDS011;16399;51.686;8.684;2022-11-27T07:23:16;14.43;;;6.95;;
29422;SDS011;16399;51.686;8.684;2022-11-27T07:26:19;16.90;;;7.60;;
29422;SDS011;16399;51.686;8.684;2022-11-27T07:29:23;12.43;;;6.30;;
29422;SDS011;16399;51.686;8.684;2022-11-27T07:32:26;16.32;;;6.65;;
29422;SDS011;16399;51.686;8.684;2022-11-27T07:35:28;14.83;;;7.30;;
29422;SDS011;16399;51.686;8.684;2022-11-27T07:38:30;12.18;;;6.45;;
29422;SDS011;16399;51.686;8.684;2022-11-27T07:41:33;11.68;;;6.80;;
29422;SDS011;16399;51.686;8.684;2022-11-27T07:44:35;11.43;;;6.00;;
29422;SDS011;16399;51.686;8.684;2022-11-27T07:47:38;16.80;;;6.83;;
29422;SDS011;16399;51.686;8.684;2022-11-27T07:50:40;11.90;;;6.22;;
29422;SDS011;16399;51.686;8.684;2022-11-27T07:53:43;14.25;;;6.37;;
29422;SDS011;16399;51.686;8.684;2022-11-27T07:56:45;15.03;;;6.42;;
29422;SDS011;16399;51.686;8.684;2022-11-27T07:59:48;14.00;;;6.58;;
29422;SDS011;16399;51.686;8.684;2022-11-27T08:02:50;13.15;;;6.75;;
29422;SDS011;16399;51.686;8.684;2022-11-27T08:05:52;16.00;;;6.47;;
29422;SDS011;16399;51.686;8.684;2022-11-27T08:08:55;13.00;;;5.95;;
29422;SDS011;16399;51.686;8.684;2022-11-27T08:11:57;13.48;;;5.55;;
29422;SDS011;16399;51.686;8.684;2022-11-27T08:15:00;13.00;;;5.80;;
29422;SDS011;16399;51.686;8.684;2022-11-27T08:18:04;13.48;;;5.90;;
29422;SDS011;16399;51.686;8.684;2022-11-27T08:21:06;14.98;;;5.80;;
29422;SDS011;16399;51.686;8.684;2022-11-27T08:24:08;14.53;;;5.90;;
29422;SDS011;16399;51.686;8.684;2022-11-27T08:27:11;11.28;;;5.80;;
29422;SDS011;16399;51.686;8.684;2022-11-27T08:30:14;12.45;;;6.00;;
29422;SDS011;16399;51.686;8.684;2022-11-27T08:33:16;10.03;;;5.58;;
29422;SDS011;16399;51.686;8.684;2022-11-27T08:36:18;11.88;;;6.08;;
29422;SDS011;16399;51.686;8.684;2022-11-27T08:39:22;10.53;;;5.85;;
29422;SDS011;16399;51.686;8.684;2022-11-27T08:42:26;12.13;;;6.87;;
29422;SDS011;16399;51.686;8.684;2022-11-27T08:45:28;9.30;;;5.22;;
29422;SDS011;16399;51.686;8.684;2022-11-27T08:48:32;11.47;;;5.40;;
29422;SDS011;16399;51.686;8.684;2022-11-27T08:51:34;11.48;;;5.12;;
29422;SDS011;16399;51.686;8.684;2022-11-27T08:54:37;10.00;;;5.35;;
29422;SDS011;16399;51.686;8.684;2022-11-27T08:57:39;12.82;;;5.00;;
29422;SDS011;16399;51.686;8.684;2022-11-27T09:00:41;12.13;;;5.40;;
29422;SDS011;16399;51.686;8.684;2022-11-27T09:03:44;10.28;;;4.75;;
29422;SDS011;16399;51.686;8.684;2022-11-27T09:06:47;9.55;;;4.70;;
29422;SDS011;16399;51.686;8.684;2022-11-27T09:09:49;9.05;;;4.53;;
29422;SDS011;16399;51.686;8.684;2022-11-27T09:12:51;7.92;;;3.90;;
29422;SDS011;16399;51.686;8.684;2022-11-27T09:15:56;7.73;;;4.00;;
29422;SDS011;16399;51.686;8.684;2022-11-27T09:18:58;13.78;;;4.20;;
29422;SDS011;16399;51.686;8.684;2022-11-27T09:22:01;13.38;;;3.60;;
29422;SDS011;16399;51.686;8.684;2022-11-27T09:25:03;9.63;;;3.55;;
29422;SDS011;16399;51.686;8.684;2022-11-27T09:28:06;8.23;;;3.70;;
29422;SDS011;16399;51.686;8.684;2022-11-27T09:31:09;7.67;;;3.87;;
29422;SDS011;16399;51.686;8.684;2022-11-27T09:34:13;9.40;;;4.00;;
29422;SDS011;16399;51.686;8.684;2022-11-27T09:37:16;8.55;;;3.70;;
29422;SDS011;16399;51.686;8.684;2022-11-27T09:40:18;9.58;;;3.98;;
29422;SDS011;16399;51.686;8.684;2022-11-27T09:43:27;6.28;;;3.45;;
29422;SDS011;16399;51.686;8.684;2022-11-27T09:46:33;9.90;;;3.40;;
29422;SDS011;16399;51.686;8.684;2022-11-27T09:49:41;9.83;;;4.58;;
29422;SDS011;16399;51.686;8.684;2022-11-27T09:52:52;8.43;;;3.23;;
29422;SDS011;16399;51.686;8.684;2022-11-27T09:55:57;7.87;;;3.02;;
29422;SDS011;16399;51.686;8.684;2022-11-27T09:59:02;8.93;;;3.58;;
29422;SDS011;16399;51.686;8.684;2022-11-27T10:02:14;9.25;;;2.95;;
29422;SDS011;16399;51.686;8.684;2022-11-27T10:08:31;8.45;;;2.85;;
29422;SDS011;16399;51.686;8.684;2022-11-27T10:21:26;9.70;;;3.02;;
29422;SDS011;16399;51.686;8.684;2022-11-27T10:24:32;7.75;;;2.70;;
29422;SDS011;16399;51.686;8.684;2022-11-27T10:27:57;7.15;;;2.87;;
29422;SDS011;16399;51.686;8.684;2022-11-27T10:31:01;7.08;;;3.10;;
29422;SDS011;16399;51.686;8.684;2022-11-27T10:34:26;8.45;;;2.30;;
29422;SDS011;16399;51.686;8.684;2022-11-27T10:37:38;7.85;;;2.47;;
29422;SDS011;16399;51.686;8.684;2022-11-27T10:40:43;4.35;;;2.17;;
29422;SDS011;16399;51.686;8.684;2022-11-27T10:43:46;7.40;;;2.50;;
29422;SDS011;16399;51.686;8.684;2022-11-27T10:46:53;5.22;;;2.12;;
29422;SDS011;16399;51.686;8.684;2022-11-27T10:49:57;5.17;;;1.90;;
29422;SDS011;16399;51.686;8.684;2022-11-27T10:53:13;6.37;;;2.35;;
29422;SDS011;16399;51.686;8.684;2022-11-27T10:59:21;4.78;;;1.95;;
29422;SDS011;16399;51.686;8.684;2022-11-27T11:02:29;6.67;;;2.42;;
29422;SDS011;16399;51.686;8.684;2022-11-27T11:05:37;5.75;;;2.10;;
29422;SDS011;16399;51.686;8.684;2022-11-27T11:08:40;4.42;;;1.92;;
29422;SDS011;16399;51.686;8.684;2022-11-27T11:11:43;4.58;;;2.10;;
29422;SDS011;16399;51.686;8.684;2022-11-27T11:14:53;9.75;;;2.30;;
29422;SDS011;16399;51.686;8.684;2022-11-27T11:17:57;4.90;;;2.00;;
29422;SDS011;16399;51.686;8.684;2022-11-27T11:21:00;4.53;;;1.80;;
29422;SDS011;16399;51.686;8.684;2022-11-27T11:24:17;7.00;;;2.70;;
29422;SDS011;16399;51.686;8.684;2022-11-27T11:27:18;6.17;;;2.47;;
29422;SDS011;16399;51.686;8.684;2022-11-27T11:30:27;7.22;;;2.47;;
29422;SDS011;16399;51.686;8.684;2022-11-27T11:33:33;5.80;;;2.60;;
29422;SDS011;16399;51.686;8.684;2022-11-27T11:36:36;7.35;;;2.55;;
29422;SDS011;16399;51.686;8.684;2022-11-27T11:39:41;12.43;;;4.15;;
29422;SDS011;16399;51.686;8.684;2022-11-27T11:42:49;6.22;;;2.25;;
29422;SDS011;16399;51.686;8.684;2022-11-27T11:45:52;5.20;;;1.67;;
29422;SDS011;16399;51.686;8.684;2022-11-27T11:49:06;5.50;;;2.05;;
29422;SDS011;16399;51.686;8.684;2022-11-27T11:59:15;3.77;;;1.67;;
29422;SDS011;16399;51.686;8.684;2022-11-27T12:02:20;8.15;;;3.22;;
29422;SDS011;16399;51.686;8.684;2022-11-27T12:08:53;4.80;;;2.15;;
29422;SDS011;16399;51.686;8.684;2022-11-27T12:15:24;5.55;;;1.60;;
29422;SDS011;16399;51.686;8.684;2022-11-27T12:18:35;4.40;;;2.10;;
29422;SDS011;16399;51.686;8.684;2022-11-27T12:28:39;4.72;;;1.72;;
29422;SDS011;16399;51.686;8.684;2022-11-27T12:35:17;3.95;;;1.47;;
29422;SDS011;16399;51.686;8.684;2022-11-27T12:44:53;4.92;;;1.17;;
29422;SDS011;16399;51.686;8.684;2022-11-27T12:48:14;4.60;;;1.65;;
29422;SDS011;16399;51.686;8.684;2022-11-27T12:51:19;4.08;;;1.45;;
29422;SDS011;16399;51.686;8.684;2022-11-27T12:57:53;5.95;;;1.72;;
29422;SDS011;16399;51.686;8.684;2022-11-27T13:01:02;30.82;;;25.12;;
29422;SDS011;16399;51.686;8.684;2022-11-27T13:04:10;9.33;;;6.33;;
29422;SDS011;16399;51.686;8.684;2022-11-27T13:07:16;7.58;;;2.87;;
29422;SDS011;16399;51.686;8.684;2022-11-27T13:10:38;4.80;;;2.08;;
29422;SDS011;16399;51.686;8.684;2022-11-27T13:13:48;6.25;;;2.25;;
29422;SDS011;16399;51.686;8.684;2022-11-27T13:16:58;5.28;;;1.98;;
29422;SDS011;16399;51.686;8.684;2022-11-27T13:19:59;5.12;;;1.60;;
29422;SDS011;16399;51.686;8.684;2022-11-27T13:23:03;4.97;;;1.62;;
29422;SDS011;16399;51.686;8.684;2022-11-27T13:26:06;3.80;;;1.52;;
29422;SDS011;16399;51.686;8.684;2022-11-27T13:32:24;5.15;;;1.80;;
29422;SDS011;16399;51.686;8.684;2022-11-27T13:35:42;4.25;;;1.77;;
29422;SDS011;16399;51.686;8.684;2022-11-27T13:38:42;7.00;;;1.30;;
29422;SDS011;16399;51.686;8.684;2022-11-27T13:41:46;2.55;;;1.05;;
29422;SDS011;16399;51.686;8.684;2022-11-27T13:45:01;4.03;;;1.70;;
29422;SDS011;16399;51.686;8.684;2022-11-27T13:51:32;5.78;;;2.47;;
29422;SDS011;16399;51.686;8.684;2022-11-27T13:54:36;5.25;;;2.05;;
29422;SDS011;16399;51.686;8.684;2022-11-27T13:57:39;4.83;;;2.00;;
29422;SDS011;16399;51.686;8.684;2022-11-27T14:00:45;4.60;;;1.62;;
29422;SDS011;16399;51.686;8.684;2022-11-27T14:03:47;4.95;;;1.40;;
29422;SDS011;16399;51.686;8.684;2022-11-27T14:06:51;4.92;;;1.65;;
29422;SDS011;16399;51.686;8.684;2022-11-27T14:09:55;2.35;;;1.10;;
29422;SDS011;16399;51.686;8.684;2022-11-27T14:13:02;11.85;;;4.30;;
29422;SDS011;16399;51.686;8.684;2022-11-27T14:19:33;5.05;;;2.85;;
29422;SDS011;16399;51.686;8.684;2022-11-27T14:22:42;5.33;;;1.65;;
29422;SDS011;16399;51.686;8.684;2022-11-27T14:25:45;5.37;;;1.98;;
29422;SDS011;16399;51.686;8.684;2022-11-27T14:28:56;10.43;;;3.08;;
29422;SDS011;16399;51.686;8.684;2022-11-27T14:32:01;7.65;;;3.42;;
29422;SDS011;16399;51.686;8.684;2022-11-27T14:35:17;5.83;;;1.72;;
29422;SDS011;16399;51.686;8.684;2022-11-27T14:38:21;4.28;;;1.50;;
29422;SDS011;16399;51.686;8.684;2022-11-27T14:41:26;6.53;;;2.12;;
29422;SDS011;16399;51.686;8.684;2022-11-27T14:47:31;5.72;;;1.87;;
29422;SDS011;16399;51.686;8.684;2022-11-27T14:50:34;5.35;;;1.80;;
29422;SDS011;16399;51.686;8.684;2022-11-27T14:53:36;4.80;;;2.15;;
29422;SDS011;16399;51.686;8.684;2022-11-27T14:56:40;7.67;;;2.20;;
29422;SDS011;16399;51.686;8.684;2022-11-27T14:59:44;7.40;;;2.60;;
29422;SDS011;16399;51.686;8.684;2022-11-27T15:02:49;8.85;;;3.22;;
29422;SDS011;16399;51.686;8.684;2022-11-27T15:05:53;6.70;;;3.05;;
29422;SDS011;16399;51.686;8.684;2022-11-27T15:08:57;7.53;;;2.75;;
29422;SDS011;16399;51.686;8.684;2022-11-27T15:12:05;10.20;;;3.20;;
29422;SDS011;16399;51.686;8.684;2022-11-27T15:15:14;5.70;;;2.10;;
29422;SDS011;16399;51.686;8.684;2022-11-27T15:18:18;8.30;;;2.98;;
29422;SDS011;16399;51.686;8.684;2022-11-27T15:21:22;6.58;;;2.77;;
29422;SDS011;16399;51.686;8.684;2022-11-27T15:24:32;7.37;;;3.42;;
29422;SDS011;16399;51.686;8.684;2022-11-27T15:27:46;11.97;;;3.87;;
29422;SDS011;16399;51.686;8.684;2022-11-27T15:30:49;9.48;;;3.37;;
29422;SDS011;16399;51.686;8.684;2022-11-27T15:33:56;7.97;;;2.30;;
29422;SDS011;16399;51.686;8.684;2022-11-27T15:37:12;8.65;;;2.42;;
29422;SDS011;16399;51.686;8.684;2022-11-27T15:40:43;9.20;;;2.77;;
29422;SDS011;16399;51.686;8.684;2022-11-27T15:43:33;8.43;;;2.50;;
29422;SDS011;16399;51.686;8.684;2022-11-27T15:46:40;5.37;;;2.58;;
29422;SDS011;16399;51.686;8.684;2022-11-27T15:49:44;6.25;;;2.35;;
29422;SDS011;16399;51.686;8.684;2022-11-27T15:52:46;6.28;;;2.37;;
29422;SDS011;16399;51.686;8.684;2022-11-27T15:55:48;7.30;;;2.22;;
29422;SDS011;16399;51.686;8.684;2022-11-27T15:58:51;5.58;;;1.80;;
29422;SDS011;16399;51.686;8.684;2022-11-27T16:01:53;6.25;;;2.00;;
29422;SDS011;16399;51.686;8.684;2022-11-27T16:04:57;5.57;;;2.27;;
29422;SDS011;16399;51.686;8.684;2022-11-27T16:07:59;5.47;;;2.00;;
29422;SDS011;16399;51.686;8.684;2022-11-27T16:11:06;6.83;;;2.10;;
29422;SDS011;16399;51.686;8.684;2022-11-27T16:14:11;4.40;;;2.10;;
29422;SDS011;16399;51.686;8.684;2022-11-27T16:17:14;4.97;;;2.00;;
29422;SDS011;16399;51.686;8.684;2022-11-27T16:20:16;5.78;;;2.20;;
29422;SDS011;16399;51.686;8.684;2022-11-27T16:23:18;4.40;;;2.05;;
29422;SDS011;16399;51.686;8.684;2022-11-27T16:26:21;7.33;;;2.25;;
29422;SDS011;16399;51.686;8.684;2022-11-27T16:29:23;7.75;;;2.83;;
29422;SDS011;16399;51.686;8.684;2022-11-27T16:32:25;8.35;;;3.42;;
29422;SDS011;16399;51.686;8.684;2022-11-27T16:35:28;6.00;;;2.00;;
29422;SDS011;16399;51.686;8.684;2022-11-27T16:38:30;4.42;;;1.47;;
29422;SDS011;16399;51.686;8.684;2022-11-27T16:41:32;3.45;;;1.47;;
29422;SDS011;16399;51.686;8.684;2022-11-27T16:44:35;4.08;;;1.55;;
29422;SDS011;16399;51.686;8.684;2022-11-27T16:47:37;3.22;;;1.50;;
29422;SDS011;16399;51.686;8.684;2022-11-27T16:50:39;3.60;;;1.35;;
29422;SDS011;16399;51.686;8.684;2022-11-27T16:53:43;3.65;;;1.72;;
29422;SDS011;16399;51.686;8.684;2022-11-27T16:56:47;3.40;;;1.30;;
29422;SDS011;16399;51.686;8.684;2022-11-27T16:59:49;3.50;;;1.52;;
29422;SDS011;16399;51.686;8.684;2022-11-27T17:02:51;3.80;;;1.17;;
29422;SDS011;16399;51.686;8.684;2022-11-27T17:05:54;4.58;;;1.85;;
29422;SDS011;16399;51.686;8.684;2022-11-27T17:08:58;4.47;;;1.80;;
29422;SDS011;16399;51.686;8.684;2022-11-27T17:15:04;4.95;;;1.87;;
29422;SDS011;16399;51.686;8.684;2022-11-27T17:18:07;11.55;;;4.33;;
29422;SDS011;16399;51.686;8.684;2022-11-27T17:21:13;4.75;;;1.75;;
29422;SDS011;16399;51.686;8.684;2022-11-27T17:24:18;3.67;;;1.65;;
29422;SDS011;16399;51.686;8.684;2022-11-27T17:27:20;4.62;;;1.50;;
29422;SDS011;16399;51.686;8.684;2022-11-27T17:30:22;6.12;;;1.90;;
29422;SDS011;16399;51.686;8.684;2022-11-27T17:33:24;4.20;;;1.57;;
29422;SDS011;16399;51.686;8.684;2022-11-27T17:36:28;5.35;;;2.15;;
29422;SDS011;16399;51.686;8.684;2022-11-27T17:39:31;6.75;;;2.42;;
29422;SDS011;16399;51.686;8.684;2022-11-27T17:42:34;4.22;;;1.55;;
29422;SDS011;16399;51.686;8.684;2022-11-27T17:45:39;4.58;;;1.50;;
29422;SDS011;16399;51.686;8.684;2022-11-27T17:48:42;6.65;;;2.00;;
29422;SDS011;16399;51.686;8.684;2022-11-27T17:51:44;3.87;;;1.70;;
29422;SDS011;16399;51.686;8.684;2022-11-27T17:54:47;2.55;;;1.32;;
29422;SDS011;16399;51.686;8.684;2022-11-27T17:57:49;3.00;;;1.52;;
29422;SDS011;16399;51.686;8.684;2022-11-27T18:00:52;4.78;;;1.85;;
29422;SDS011;16399;51.686;8.684;2022-11-27T18:03:55;3.33;;;1.40;;
29422;SDS011;16399;51.686;8.684;2022-11-27T18:07:03;4.12;;;1.60;;
29422;SDS011;16399;51.686;8.684;2022-11-27T18:10:06;4.33;;;1.57;;
29422;SDS011;16399;51.686;8.684;2022-11-27T18:13:08;5.10;;;1.40;;
29422;SDS011;16399;51.686;8.684;2022-11-27T18:16:12;5.85;;;1.67;;
29422;SDS011;16399;51.686;8.684;2022-11-27T18:19:16;3.72;;;1.50;;
29422;SDS011;16399;51.686;8.684;2022-11-27T18:22:18;4.75;;;1.70;;
29422;SDS011;16399;51.686;8.684;2022-11-27T18:25:21;5.42;;;2.15;;
29422;SDS011;16399;51.686;8.684;2022-11-27T18:28:23;8.75;;;4.37;;
29422;SDS011;16399;51.686;8.684;2022-11-27T18:31:25;5.67;;;2.10;;
29422;SDS011;16399;51.686;8.684;2022-11-27T18:34:28;5.45;;;1.75;;
29422;SDS011;16399;51.686;8.684;2022-11-27T18:37:30;3.62;;;1.57;;
29422;SDS011;16399;51.686;8.684;2022-11-27T18:40:35;6.47;;;1.80;;
29422;SDS011;16399;51.686;8.684;2022-11-27T18:43:39;4.10;;;2.30;;
29422;SDS011;16399;51.686;8.684;2022-11-27T18:46:42;3.65;;;1.70;;
29422;SDS011;16399;51.686;8.684;2022-11-27T18:49:46;5.00;;;2.08;;
29422;SDS011;16399;51.686;8.684;2022-11-27T18:52:48;4.13;;;2.10;;
29422;SDS011;16399;51.686;8.684;2022-11-27T18:55:50;6.30;;;2.25;;
29422;SDS011;16399;51.686;8.684;2022-11-27T18:58:52;6.40;;;2.83;;
29422;SDS011;16399;51.686;8.684;2022-11-27T19:01:55;5.08;;;2.15;;
29422;SDS011;16399;51.686;8.684;2022-11-27T19:04:57;4.35;;;1.92;;
29422;SDS011;16399;51.686;8.684;2022-11-27T19:08:00;12.10;;;4.12;;
29422;SDS011;16399;51.686;8.684;2022-11-27T19:11:13;6.17;;;2.25;;
29422;SDS011;16399;51.686;8.684;2022-11-27T19:14:11;7.62;;;3.02;;
29422;SDS011;16399;51.686;8.684;2022-11-27T19:17:14;4.55;;;2.08;;
29422;SDS011;16399;51.686;8.684;2022-11-27T19:20:18;13.17;;;3.77;;
29422;SDS011;16399;51.686;8.684;2022-11-27T19:23:20;7.08;;;2.67;;
29422;SDS011;16399;51.686;8.684;2022-11-27T19:26:23;7.30;;;2.50;;
29422;SDS011;16399;51.686;8.684;2022-11-27T19:29:27;8.53;;;2.60;;
29422;SDS011;16399;51.686;8.684;2022-11-27T19:32:29;16.80;;;6.42;;
29422;SDS011;16399;51.686;8.684;2022-11-27T19:35:33;7.22;;;3.52;;
29422;SDS011;16399;51.686;8.684;2022-11-27T19:38:36;9.20;;;4.00;;
29422;SDS011;16399;51.686;8.684;2022-11-27T19:41:39;7.53;;;2.83;;